createdAt,value
2023-04-17T00:00:28.863Z,24.90
2023-04-17T00:02:56.646Z,25.00
2023-04-17T00:05:26.440Z,25.00
2023-04-17T00:07:54.314Z,25.00
2023-04-17T00:10:23.536Z,25.10
2023-04-17T00:12:51.238Z,25.10
2023-04-17T00:15:18.904Z,25.10
2023-04-17T00:17:46.670Z,25.10
2023-04-17T00:20:14.817Z,25.20
2023-04-17T00:22:42.642Z,25.20
2023-04-17T00:25:12.819Z,25.20
2023-04-17T00:27:42.178Z,25.20
2023-04-17T00:30:10.540Z,25.20
2023-04-17T00:32:38.799Z,25.20
2023-04-17T00:35:07.371Z,25.20
2023-04-17T00:37:36.224Z,25.30
2023-04-17T00:40:04.128Z,25.30
2023-04-17T00:42:31.830Z,25.30
2023-04-17T00:45:01.002Z,25.40
2023-04-17T00:47:28.767Z,25.40
2023-04-17T00:49:56.461Z,25.40
2023-04-17T00:52:28.245Z,25.40
2023-04-17T00:54:55.938Z,25.40
2023-04-17T00:57:24.122Z,25.40
2023-04-17T00:59:51.776Z,25.40
2023-04-17T01:02:21.109Z,25.50
2023-04-17T01:04:48.984Z,25.50
2023-04-17T01:07:16.716Z,25.50
2023-04-17T01:09:44.479Z,25.50
2023-04-17T01:12:22.134Z,25.50
2023-04-17T01:14:50.897Z,25.60
2023-04-17T01:17:20.399Z,25.60
2023-04-17T01:19:48.328Z,25.60
2023-04-17T01:22:16.750Z,25.60
2023-04-17T01:24:46.113Z,25.60
2023-04-17T01:27:14.870Z,25.60
2023-04-17T01:29:44.539Z,25.60
2023-04-17T01:32:12.578Z,25.60
2023-04-17T01:34:40.436Z,25.60
2023-04-17T01:37:08.168Z,25.70
2023-04-17T01:39:36.768Z,25.60
2023-04-17T01:42:06.544Z,25.70
2023-04-17T01:44:34.238Z,25.60
2023-04-17T01:47:01.904Z,25.60
2023-04-17T01:49:29.743Z,25.60
2023-04-17T01:51:57.510Z,25.70
2023-04-17T01:54:25.461Z,25.60
2023-04-17T01:56:53.168Z,25.70
2023-04-17T01:59:22.199Z,25.70
2023-04-17T02:01:50.719Z,25.70
2023-04-17T02:04:18.602Z,25.70
2023-04-17T02:06:46.325Z,25.70
2023-04-17T02:09:14.108Z,25.70
2023-04-17T02:11:41.838Z,25.70
2023-04-17T02:14:09.488Z,25.70
2023-04-17T02:16:39.863Z,25.70
2023-04-17T02:19:07.567Z,25.70
2023-04-17T02:21:35.281Z,25.70
2023-04-17T02:24:06.276Z,25.70
2023-04-17T02:26:33.991Z,25.70
2023-04-17T02:29:01.688Z,25.70
2023-04-17T02:31:29.411Z,25.70
2023-04-17T02:33:58.438Z,25.70
2023-04-17T02:36:26.348Z,25.70
2023-04-17T02:38:54.090Z,25.70
2023-04-17T02:41:21.900Z,25.70
2023-04-17T02:43:49.602Z,25.70
2023-04-17T02:46:18.619Z,25.70
2023-04-17T02:48:46.462Z,25.70
2023-04-17T02:51:15.510Z,25.70
2023-04-17T02:53:43.254Z,25.70
2023-04-17T02:56:10.953Z,25.70
2023-04-17T02:58:39.603Z,25.70
2023-04-17T03:01:09.605Z,25.70
2023-04-17T03:03:42.674Z,25.60
2023-04-17T03:06:15.013Z,25.70
2023-04-17T03:08:43.297Z,25.60
2023-04-17T03:11:11.059Z,25.60
2023-04-17T03:13:38.786Z,25.60
2023-04-17T03:16:07.308Z,25.60
2023-04-17T03:18:40.163Z,25.60
2023-04-17T03:21:08.293Z,25.60
2023-04-17T03:23:37.412Z,25.60
2023-04-17T03:26:06.845Z,25.60
2023-04-17T03:28:34.979Z,25.50
2023-04-17T03:31:03.791Z,25.50
2023-04-17T03:33:33.832Z,25.50
2023-04-17T03:36:01.572Z,25.50
2023-04-17T03:38:29.370Z,25.50
2023-04-17T03:40:58.375Z,25.50
2023-04-17T03:43:26.649Z,25.40
2023-04-17T03:45:54.357Z,25.40
2023-04-17T03:48:22.865Z,25.40
2023-04-17T03:50:52.315Z,25.50
2023-04-17T03:53:20.293Z,25.50
2023-04-17T03:55:49.540Z,25.40
2023-04-17T03:58:27.286Z,25.40
2023-04-17T04:00:55.606Z,25.40
2023-04-17T04:03:26.882Z,25.40
2023-04-17T04:05:54.748Z,25.30
2023-04-17T04:08:22.409Z,25.40
2023-04-17T04:10:52.925Z,25.30
2023-04-17T04:13:28.003Z,25.30
2023-04-17T04:16:01.880Z,25.30
2023-04-17T04:18:31.334Z,25.30
2023-04-17T04:20:59.471Z,25.30
2023-04-17T04:23:31.724Z,25.30
2023-04-17T04:26:01.622Z,25.20
2023-04-17T04:28:43.719Z,25.30
2023-04-17T04:31:20.776Z,25.20
2023-04-17T04:33:54.876Z,25.20
2023-04-17T04:36:23.873Z,25.20
2023-04-17T04:39:00.785Z,25.20
2023-04-17T04:41:34.144Z,25.20
2023-04-17T04:44:05.544Z,25.20
2023-04-17T04:46:36.327Z,25.20
2023-04-17T04:49:05.573Z,25.20
2023-04-17T04:51:33.756Z,25.20
2023-04-17T04:54:03.612Z,25.10
2023-04-17T04:56:33.095Z,25.10
2023-04-17T04:59:01.112Z,25.10
2023-04-17T05:01:33.113Z,25.10
2023-04-17T05:04:02.387Z,25.10
2023-04-17T05:06:31.167Z,25.10
2023-04-17T05:09:02.379Z,25.00
2023-04-17T05:11:30.639Z,25.10
2023-04-17T05:13:59.265Z,25.00
2023-04-17T05:16:30.901Z,25.00
2023-04-17T05:19:01.047Z,25.00
2023-04-17T05:21:53.854Z,25.00
2023-04-17T05:24:23.038Z,25.00
2023-04-17T05:26:51.009Z,25.00
2023-04-17T05:29:19.302Z,25.00
2023-04-17T05:31:47.915Z,24.90
2023-04-17T05:34:49.191Z,24.90
2023-04-17T05:37:20.038Z,24.90
2023-04-17T05:39:47.990Z,24.90
2023-04-17T05:42:15.668Z,24.90
2023-04-17T05:44:43.785Z,24.90
2023-04-17T05:47:11.497Z,24.90
2023-04-17T05:49:39.370Z,24.90
2023-04-17T05:52:08.345Z,24.90
2023-04-17T05:54:39.948Z,24.90
2023-04-17T05:57:09.452Z,24.90
2023-04-17T05:59:37.894Z,24.90
2023-04-17T06:02:07.582Z,24.80
2023-04-17T06:04:36.057Z,24.80
2023-04-17T06:07:06.009Z,24.80
2023-04-17T06:09:37.619Z,24.80
2023-04-17T06:12:05.325Z,24.80
2023-04-17T06:14:33.834Z,24.80
2023-04-17T06:17:05.548Z,24.80
2023-04-17T06:19:33.299Z,24.80
2023-04-17T06:22:01.096Z,24.80
2023-04-17T06:24:28.788Z,24.80
2023-04-17T06:26:58.341Z,24.80
2023-04-17T06:29:32.308Z,24.80
2023-04-17T06:32:00.177Z,24.80
2023-04-17T06:34:28.177Z,24.80
2023-04-17T06:36:56.832Z,24.80
2023-04-17T06:39:24.813Z,24.80
2023-04-17T06:41:52.740Z,24.80
2023-04-17T06:44:28.759Z,24.80
2023-04-17T06:46:56.473Z,24.80
2023-04-17T06:49:24.781Z,24.80
2023-04-17T06:51:52.472Z,24.80
2023-04-17T06:54:20.145Z,24.80
2023-04-17T06:56:48.165Z,24.80
2023-04-17T06:59:15.914Z,24.80
2023-04-17T07:01:45.425Z,24.90
2023-04-17T07:04:13.201Z,24.90
2023-04-17T07:06:41.146Z,24.90
2023-04-17T07:09:08.893Z,24.80
2023-04-17T07:11:36.600Z,24.90
2023-04-17T07:14:04.359Z,24.90
2023-04-17T07:16:32.084Z,24.80
2023-04-17T07:19:01.292Z,24.80
2023-04-17T07:21:28.963Z,24.80
2023-04-17T07:23:56.659Z,24.80
2023-04-17T07:26:24.358Z,24.80
2023-04-17T07:28:52.072Z,24.80
2023-04-17T07:31:21.756Z,24.80
2023-04-17T07:33:49.588Z,24.80
2023-04-17T07:36:18.967Z,24.80
2023-04-17T07:38:46.675Z,24.80
2023-04-17T07:41:14.351Z,24.80
2023-04-17T07:43:42.055Z,24.80
2023-04-17T07:46:09.807Z,24.80
2023-04-17T07:48:37.527Z,24.90
2023-04-17T07:51:05.854Z,24.80
2023-04-17T07:53:35.946Z,24.80
2023-04-17T07:56:03.623Z,24.80
2023-04-17T07:58:31.904Z,24.80
2023-04-17T08:00:59.600Z,24.80
2023-04-17T08:03:27.591Z,24.80
2023-04-17T08:05:55.507Z,24.80
2023-04-17T08:08:23.895Z,24.90
2023-04-17T08:10:53.097Z,24.90
2023-04-17T08:13:20.881Z,24.90
2023-04-17T08:15:48.598Z,24.90
2023-04-17T08:18:16.366Z,24.90
2023-04-17T08:20:44.061Z,24.90
2023-04-17T08:23:11.794Z,24.90
2023-04-17T08:25:39.444Z,24.90
2023-04-17T08:28:08.440Z,24.90
2023-04-17T08:30:36.331Z,25.00
2023-04-17T08:33:04.131Z,24.90
2023-04-17T08:35:31.989Z,25.00
2023-04-17T08:38:00.070Z,25.00
2023-04-17T08:40:27.926Z,25.00
2023-04-17T08:42:55.656Z,25.00
2023-04-17T08:45:25.327Z,25.00
2023-04-17T08:47:53.122Z,25.00
2023-04-17T08:50:21.908Z,25.00
2023-04-17T08:52:50.447Z,25.00
2023-04-17T08:55:19.290Z,25.00
2023-04-17T08:57:57.642Z,25.00
2023-04-17T09:00:27.664Z,25.10
2023-04-17T09:02:56.258Z,25.10
2023-04-17T09:05:24.520Z,25.00
2023-04-17T09:07:52.340Z,25.10
2023-04-17T09:10:20.017Z,25.10
2023-04-17T09:12:59.967Z,25.10
2023-04-17T09:15:29.556Z,25.20
2023-04-17T09:17:57.316Z,25.10
2023-04-17T09:20:25.294Z,25.20
2023-04-17T09:23:00.199Z,25.10
2023-04-17T09:25:28.435Z,25.20
2023-04-17T09:27:56.472Z,25.20
2023-04-17T09:30:26.930Z,25.20
2023-04-17T09:33:05.517Z,25.20
2023-04-17T09:35:33.490Z,25.20
2023-04-17T09:38:01.326Z,25.20
2023-04-17T09:40:30.250Z,25.20
2023-04-17T09:42:58.856Z,25.20
2023-04-17T09:45:28.148Z,25.20
2023-04-17T09:47:56.521Z,25.20
2023-04-17T09:50:25.762Z,25.20
2023-04-17T09:52:53.775Z,25.30
2023-04-17T09:55:24.752Z,25.20
2023-04-17T09:57:55.734Z,25.20
2023-04-17T10:00:26.847Z,25.20
2023-04-17T10:02:55.011Z,25.20
2023-04-17T10:05:23.222Z,25.20
2023-04-17T10:07:52.242Z,25.20
2023-04-17T10:10:23.833Z,25.20
2023-04-17T10:12:51.864Z,25.20
2023-04-17T10:15:20.164Z,25.30
2023-04-17T10:17:49.750Z,25.30
2023-04-17T10:20:38.122Z,25.30
2023-04-17T10:23:32.484Z,25.30
2023-04-17T10:26:40.330Z,25.30
2023-04-17T10:29:08.100Z,25.30
2023-04-17T10:32:25.814Z,25.30
2023-04-17T10:34:54.286Z,25.40
2023-04-17T10:37:23.274Z,25.40
2023-04-17T10:39:55.276Z,25.30
2023-04-17T10:42:23.749Z,25.40
2023-04-17T10:44:52.335Z,25.30
2023-04-17T10:47:23.138Z,25.30
2023-04-17T10:49:51.552Z,25.30
2023-04-17T10:52:41.812Z,25.30
2023-04-17T10:55:13.430Z,25.30
2023-04-17T10:57:59.034Z,25.40
2023-04-17T11:00:32.239Z,25.40
2023-04-17T11:03:01.153Z,25.40
2023-04-17T11:05:30.221Z,25.40
2023-04-17T11:07:57.996Z,25.50
2023-04-17T11:10:27.319Z,25.50
2023-04-17T11:12:56.430Z,25.50
2023-04-17T11:15:28.500Z,25.50
2023-04-17T11:17:56.910Z,25.50
2023-04-17T11:20:25.213Z,25.50
2023-04-17T11:22:52.877Z,25.50
2023-04-17T11:25:22.251Z,25.50
2023-04-17T11:27:56.077Z,25.50
2023-04-17T11:30:30.867Z,25.60
2023-04-17T11:32:59.850Z,25.60
2023-04-17T11:35:31.535Z,25.50
2023-04-17T11:38:12.744Z,25.60
2023-04-17T11:40:47.951Z,25.60
2023-04-17T11:43:17.215Z,25.60
2023-04-17T11:45:45.821Z,25.60
2023-04-17T11:48:14.649Z,25.60
2023-04-17T11:50:42.910Z,25.60
2023-04-17T11:53:13.305Z,25.60
2023-04-17T11:55:40.991Z,25.60
2023-04-17T11:58:09.402Z,25.60
2023-04-17T12:00:39.102Z,25.60
2023-04-17T12:03:31.891Z,25.70
2023-04-17T12:06:00.606Z,25.70
2023-04-17T12:08:28.985Z,25.70
2023-04-17T12:10:57.132Z,25.70
2023-04-17T12:13:24.933Z,25.70
2023-04-17T12:15:53.992Z,25.70
2023-04-17T12:18:21.677Z,25.80
2023-04-17T12:20:49.335Z,25.80
2023-04-17T12:23:17.005Z,25.80
2023-04-17T12:25:44.803Z,25.80
2023-04-17T12:28:12.617Z,25.80
2023-04-17T12:30:40.576Z,25.80
2023-04-17T12:33:09.900Z,25.80
2023-04-17T12:35:37.736Z,25.90
2023-04-17T12:38:05.485Z,25.90
2023-04-17T12:40:33.250Z,25.90
2023-04-17T12:43:00.907Z,25.90
2023-04-17T12:45:28.966Z,25.90
2023-04-17T12:47:56.831Z,25.90
2023-04-17T12:50:26.372Z,25.90
2023-04-17T12:52:54.085Z,26.00
2023-04-17T12:55:21.853Z,26.00
2023-04-17T12:57:49.599Z,26.00
2023-04-17T13:00:18.043Z,26.00
2023-04-17T13:02:45.857Z,26.00
2023-04-17T13:05:13.678Z,26.00
2023-04-17T13:07:42.661Z,26.00
2023-04-17T13:10:10.938Z,26.00
2023-04-17T13:12:38.600Z,26.00
2023-04-17T13:15:07.322Z,26.00
2023-04-17T13:17:35.041Z,26.00
2023-04-17T13:20:02.749Z,26.00
2023-04-17T13:22:30.406Z,26.00
2023-04-17T13:24:59.657Z,26.00
2023-04-17T13:27:27.392Z,26.00
2023-04-17T13:29:55.258Z,26.00
2023-04-17T13:32:22.983Z,26.00
2023-04-17T13:34:50.938Z,26.00
2023-04-17T13:37:18.658Z,26.00
2023-04-17T13:39:46.328Z,26.00
2023-04-17T13:42:16.432Z,26.00
2023-04-17T13:44:44.118Z,26.00
2023-04-17T13:47:11.810Z,26.00
2023-04-17T13:49:39.765Z,25.90
2023-04-17T13:52:07.790Z,25.90
2023-04-17T13:54:35.477Z,25.90
2023-04-17T13:57:03.168Z,25.90
2023-04-17T13:59:32.198Z,26.00
2023-04-17T14:02:03.662Z,26.00
2023-04-17T14:04:31.944Z,25.90
2023-04-17T14:07:00.051Z,25.90
2023-04-17T14:09:27.872Z,25.90
2023-04-17T14:11:55.561Z,25.90
2023-04-17T14:14:23.712Z,25.90
2023-04-17T14:16:52.967Z,25.90
2023-04-17T14:19:21.131Z,25.90
2023-04-17T14:21:48.870Z,25.90
2023-04-17T14:24:16.538Z,25.90
2023-04-17T14:26:44.211Z,25.90
2023-04-17T14:29:13.614Z,25.90
2023-04-17T14:31:41.788Z,25.90
2023-04-17T14:34:10.813Z,25.90
2023-04-17T14:36:38.519Z,25.90
2023-04-17T14:39:06.926Z,25.90
2023-04-17T14:41:34.832Z,25.90
2023-04-17T14:44:02.687Z,25.90
2023-04-17T14:46:30.738Z,26.00
2023-04-17T14:48:58.457Z,25.90
2023-04-17T14:51:28.380Z,26.00
2023-04-17T14:53:56.149Z,25.90
2023-04-17T14:56:23.910Z,25.90
2023-04-17T14:58:51.604Z,26.00
2023-04-17T15:01:19.361Z,26.00
2023-04-17T15:03:48.409Z,26.00
2023-04-17T15:06:16.829Z,25.90
2023-04-17T15:08:46.435Z,26.00
2023-04-17T15:11:14.179Z,26.00
2023-04-17T15:13:41.931Z,26.00
2023-04-17T15:16:10.068Z,26.00
2023-04-17T15:18:39.334Z,26.00
2023-04-17T15:21:07.422Z,26.00
2023-04-17T15:23:35.471Z,26.00
2023-04-17T15:26:04.660Z,26.00
2023-04-17T15:28:33.002Z,26.00
2023-04-17T15:31:02.160Z,26.00
2023-04-17T15:33:30.075Z,26.00
2023-04-17T15:35:58.499Z,26.00
2023-04-17T15:38:26.213Z,25.90
2023-04-17T15:40:54.058Z,25.90
2023-04-17T15:43:23.092Z,26.00
2023-04-17T15:45:51.219Z,26.00
2023-04-17T15:48:19.072Z,26.00
2023-04-17T15:50:47.051Z,25.90
2023-04-17T15:53:14.734Z,25.90
2023-04-17T15:55:42.472Z,25.90
2023-04-17T15:58:10.277Z,25.90
2023-04-17T16:00:39.538Z,25.90
2023-04-17T16:03:07.967Z,25.90
2023-04-17T16:05:36.035Z,25.90
2023-04-17T16:08:03.771Z,25.90
2023-04-17T16:10:31.491Z,25.90
2023-04-17T16:12:59.219Z,25.90
2023-04-17T16:15:26.910Z,25.90
2023-04-17T16:17:56.024Z,25.90
2023-04-17T16:20:23.877Z,25.90
2023-04-17T16:22:51.596Z,25.90
2023-04-17T16:25:20.742Z,25.90
2023-04-17T16:27:48.683Z,25.90
2023-04-17T16:30:16.348Z,25.80
2023-04-17T16:32:45.305Z,25.80
2023-04-17T16:35:14.371Z,25.70
2023-04-17T16:37:42.064Z,25.70
2023-04-17T16:40:11.559Z,25.70
2023-04-17T16:42:39.368Z,25.70
2023-04-17T16:45:08.059Z,25.60
2023-04-17T16:47:35.849Z,25.60
2023-04-17T16:50:03.707Z,25.60
2023-04-17T16:52:32.718Z,25.60
2023-04-17T16:55:00.633Z,25.60
2023-04-17T16:57:28.378Z,25.50
2023-04-17T16:59:56.086Z,25.50
2023-04-17T17:02:23.860Z,25.40
2023-04-17T17:04:51.935Z,25.40
2023-04-17T17:07:19.642Z,25.50
2023-04-17T17:09:48.782Z,25.40
2023-04-17T17:12:16.502Z,25.40
2023-04-17T17:14:44.341Z,25.60
2023-04-17T17:17:12.037Z,25.60
2023-04-17T17:19:39.737Z,25.80
2023-04-17T17:22:07.465Z,25.60
2023-04-17T17:24:36.101Z,25.90
2023-04-17T17:27:05.526Z,25.70
2023-04-17T17:29:33.510Z,25.70
2023-04-17T17:32:01.236Z,25.80
2023-04-17T17:34:30.493Z,25.70
2023-04-17T17:36:58.358Z,25.60
2023-04-17T17:39:26.216Z,25.60
2023-04-17T17:41:55.746Z,25.50
2023-04-17T17:44:24.963Z,25.40
2023-04-17T17:46:52.660Z,25.30
2023-04-17T17:49:20.352Z,25.20
2023-04-17T17:51:48.095Z,25.20
2023-04-17T17:54:15.869Z,25.10
2023-04-17T17:56:43.580Z,25.00
2023-04-17T17:59:11.259Z,24.90
2023-04-17T18:01:40.513Z,24.90
2023-04-17T18:04:08.530Z,24.80
2023-04-17T18:06:37.677Z,24.80
2023-04-17T18:09:05.400Z,24.80
2023-04-17T18:11:33.150Z,24.70
2023-04-17T18:14:01.446Z,24.70
2023-04-17T18:16:31.458Z,24.60
2023-04-17T18:19:03.244Z,24.60
2023-04-17T18:21:31.147Z,24.60
2023-04-17T18:23:59.111Z,24.60
2023-04-17T18:26:26.970Z,24.50
2023-04-17T18:28:54.744Z,24.50
2023-04-17T18:31:24.365Z,24.50
2023-04-17T18:33:52.070Z,24.40
2023-04-17T18:36:21.122Z,24.40
2023-04-17T18:38:48.874Z,24.40
2023-04-17T18:41:16.545Z,24.40
2023-04-17T18:43:44.230Z,24.30
2023-04-17T18:46:11.956Z,24.30
2023-04-17T18:48:39.653Z,24.30
2023-04-17T18:51:11.648Z,24.30
2023-04-17T18:53:40.670Z,24.20
2023-04-17T18:56:10.655Z,24.20
2023-04-17T18:58:40.135Z,24.20
2023-04-17T19:01:08.649Z,24.20
2023-04-17T19:03:36.409Z,24.10
2023-04-17T19:06:04.069Z,24.10
2023-04-17T19:08:31.758Z,24.10
2023-04-17T19:11:00.824Z,24.10
2023-04-17T19:13:28.542Z,24.00
2023-04-17T19:15:56.253Z,24.00
2023-04-17T19:18:24.059Z,24.00
2023-04-17T19:20:51.722Z,24.00
2023-04-17T19:23:19.465Z,24.00
2023-04-17T19:25:53.484Z,23.90
2023-04-17T19:28:22.656Z,24.00
2023-04-17T19:30:50.361Z,23.90
2023-04-17T19:33:18.606Z,23.90
2023-04-17T19:35:46.436Z,23.90
2023-04-17T19:38:16.761Z,23.80
2023-04-17T19:40:47.550Z,23.80
2023-04-17T19:43:15.252Z,23.80
2023-04-17T19:45:44.345Z,23.80
2023-04-17T19:48:12.057Z,23.80
2023-04-17T19:50:39.798Z,23.80
2023-04-17T19:53:07.486Z,23.80
2023-04-17T19:55:35.202Z,23.80
2023-04-17T19:58:02.866Z,23.80
2023-04-17T20:00:30.587Z,23.70
2023-04-17T20:02:59.712Z,23.70
2023-04-17T20:05:27.575Z,23.70
2023-04-17T20:07:55.372Z,23.70
2023-04-17T20:10:23.248Z,23.70
2023-04-17T20:12:50.992Z,23.70
2023-04-17T20:15:21.815Z,23.70
2023-04-17T20:17:49.803Z,23.70
2023-04-17T20:20:18.937Z,23.70
2023-04-17T20:22:46.729Z,23.70
2023-04-17T20:25:14.484Z,23.60
2023-04-17T20:27:42.178Z,23.60
2023-04-17T20:30:10.663Z,23.60
2023-04-17T20:32:38.549Z,23.60
2023-04-17T20:35:06.935Z,23.60
2023-04-17T20:37:35.948Z,23.60
2023-04-17T20:40:05.843Z,23.60
2023-04-17T20:42:33.557Z,23.60
2023-04-17T20:45:01.257Z,23.60
2023-04-17T20:47:29.036Z,23.60
2023-04-17T20:49:56.748Z,23.60
2023-04-17T20:52:24.431Z,23.60
2023-04-17T20:54:53.485Z,23.60
2023-04-17T20:57:21.201Z,23.50
2023-04-17T20:59:48.989Z,23.50
2023-04-17T21:02:17.124Z,23.50
2023-04-17T21:04:45.029Z,23.50
2023-04-17T21:07:12.735Z,23.50
2023-04-17T21:09:40.579Z,23.50
2023-04-17T21:12:09.633Z,23.50
2023-04-17T21:14:37.372Z,23.50
2023-04-17T21:17:05.055Z,23.50
2023-04-17T21:19:35.488Z,23.40
2023-04-17T21:22:03.923Z,23.40
2023-04-17T21:24:31.627Z,23.40
2023-04-17T21:26:59.640Z,23.40
2023-04-17T21:29:28.802Z,23.40
2023-04-17T21:31:56.737Z,23.40
2023-04-17T21:34:24.484Z,23.40
2023-04-17T21:36:53.699Z,23.40
2023-04-17T21:39:21.426Z,23.40
2023-04-17T21:41:49.107Z,23.40
2023-04-17T21:44:16.801Z,23.40
2023-04-17T21:46:46.616Z,23.40
2023-04-17T21:49:14.325Z,23.40
2023-04-17T21:51:42.082Z,23.40
2023-04-17T21:54:09.980Z,23.40
2023-04-17T21:56:37.794Z,23.40
2023-04-17T21:59:05.753Z,23.30
2023-04-17T22:01:33.525Z,23.30
2023-04-17T22:04:02.939Z,23.30
2023-04-17T22:06:30.796Z,23.30
2023-04-17T22:08:58.470Z,23.30
2023-04-17T22:11:26.208Z,23.30
2023-04-17T22:13:53.939Z,23.30
2023-04-17T22:16:21.665Z,23.30
2023-04-17T22:18:49.432Z,23.30
2023-04-17T22:21:18.406Z,23.30
2023-04-17T22:23:46.147Z,23.20
2023-04-17T22:26:13.888Z,23.20
2023-04-17T22:28:41.652Z,23.20
2023-04-17T22:31:10.961Z,23.20
2023-04-17T22:33:38.757Z,23.20
2023-04-17T22:36:06.701Z,23.20
2023-04-17T22:38:35.740Z,23.20
2023-04-17T22:41:03.921Z,23.20
2023-04-17T22:43:31.582Z,23.20
2023-04-17T22:45:59.399Z,23.20
2023-04-17T22:48:27.775Z,23.20
2023-04-17T22:50:56.310Z,23.20
2023-04-17T22:53:24.070Z,23.20
2023-04-17T22:56:02.387Z,23.10
2023-04-17T22:58:31.743Z,23.20
2023-04-17T23:00:59.590Z,23.10
2023-04-17T23:03:27.730Z,23.10
2023-04-17T23:05:55.421Z,23.10
2023-04-17T23:08:23.584Z,23.10
2023-04-17T23:10:58.077Z,23.10
2023-04-17T23:13:27.200Z,23.10
2023-04-17T23:15:54.975Z,23.10
2023-04-17T23:18:22.716Z,23.00
2023-04-17T23:20:50.546Z,23.00
2023-04-17T23:23:18.772Z,23.00
2023-04-17T23:25:46.446Z,23.00
2023-04-17T23:28:14.268Z,23.00
2023-04-17T23:30:43.407Z,23.00
2023-04-17T23:33:11.152Z,23.00
2023-04-17T23:35:38.834Z,23.00
2023-04-17T23:38:06.616Z,23.00
2023-04-17T23:40:34.745Z,23.00
2023-04-17T23:43:02.474Z,23.00
2023-04-17T23:45:30.118Z,22.90
2023-04-17T23:47:59.253Z,22.90
2023-04-17T23:50:26.948Z,22.90
2023-04-17T23:52:55.063Z,22.90
2023-04-17T23:55:25.704Z,22.90
2023-04-17T23:57:53.434Z,22.90
